sensor_id;sensor_type;location;lat;lon;timestamp;P1;durP1;ratioP1;P2;durP2;ratioP2
50781;SDS011;36749;37.428;-121.972;2023-03-01T00:02:08;10.38;;;2.13;;
50781;SDS011;36749;37.428;-121.972;2023-03-01T00:04:34;8.65;;;1.92;;
50781;SDS011;36749;37.428;-121.972;2023-03-01T00:07:01;10.60;;;1.92;;
50781;SDS011;36749;37.428;-121.972;2023-03-01T00:09:27;7.97;;;1.50;;
50781;SDS011;36749;37.428;-121.972;2023-03-01T00:11:53;12.02;;;2.05;;
50781;SDS011;36749;37.428;-121.972;2023-03-01T00:14:19;12.27;;;2.75;;
50781;SDS011;36749;37.428;-121.972;2023-03-01T00:16:46;6.57;;;2.08;;
50781;SDS011;36749;37.428;-121.972;2023-03-01T00:19:13;8.40;;;1.90;;
50781;SDS011;36749;37.428;-121.972;2023-03-01T00:21:41;8.27;;;2.38;;
50781;SDS011;36749;37.428;-121.972;2023-03-01T00:24:07;7.15;;;2.35;;
50781;SDS011;36749;37.428;-121.972;2023-03-01T00:26:34;9.70;;;1.98;;
50781;SDS011;36749;37.428;-121.972;2023-03-01T00:29:00;5.72;;;1.77;;
50781;SDS011;36749;37.428;-121.972;2023-03-01T00:31:28;6.88;;;2.08;;
50781;SDS011;36749;37.428;-121.972;2023-03-01T00:33:57;5.60;;;1.60;;
50781;SDS011;36749;37.428;-121.972;2023-03-01T00:36:25;8.63;;;2.00;;
50781;SDS011;36749;37.428;-121.972;2023-03-01T00:38:53;7.35;;;1.98;;
50781;SDS011;36749;37.428;-121.972;2023-03-01T00:41:20;6.82;;;1.80;;
50781;SDS011;36749;37.428;-121.972;2023-03-01T00:43:48;5.13;;;1.70;;
50781;SDS011;36749;37.428;-121.972;2023-03-01T00:46:16;8.05;;;1.83;;
50781;SDS011;36749;37.428;-121.972;2023-03-01T00:48:44;6.47;;;1.80;;
50781;SDS011;36749;37.428;-121.972;2023-03-01T00:51:19;6.82;;;1.65;;
50781;SDS011;36749;37.428;-121.972;2023-03-01T00:53:54;6.95;;;1.65;;
50781;SDS011;36749;37.428;-121.972;2023-03-01T00:56:22;9.10;;;1.75;;
50781;SDS011;36749;37.428;-121.972;2023-03-01T00:58:48;12.30;;;2.47;;
50781;SDS011;36749;37.428;-121.972;2023-03-01T01:01:16;5.75;;;1.95;;
50781;SDS011;36749;37.428;-121.972;2023-03-01T01:03:53;6.70;;;1.60;;
50781;SDS011;36749;37.428;-121.972;2023-03-01T01:06:35;8.23;;;1.60;;
50781;SDS011;36749;37.428;-121.972;2023-03-01T01:09:07;9.45;;;2.08;;
50781;SDS011;36749;37.428;-121.972;2023-03-01T01:11:42;6.63;;;1.80;;
50781;SDS011;36749;37.428;-121.972;2023-03-01T01:14:12;8.23;;;2.22;;
50781;SDS011;36749;37.428;-121.972;2023-03-01T01:16:39;6.47;;;1.98;;
50781;SDS011;36749;37.428;-121.972;2023-03-01T01:19:05;10.43;;;2.35;;
50781;SDS011;36749;37.428;-121.972;2023-03-01T01:21:32;7.53;;;1.70;;
50781;SDS011;36749;37.428;-121.972;2023-03-01T01:23:58;12.27;;;2.20;;
50781;SDS011;36749;37.428;-121.972;2023-03-01T01:26:26;13.48;;;2.05;;
50781;SDS011;36749;37.428;-121.972;2023-03-01T01:28:54;6.80;;;2.13;;
50781;SDS011;36749;37.428;-121.972;2023-03-01T01:31:20;9.20;;;2.10;;
50781;SDS011;36749;37.428;-121.972;2023-03-01T01:33:52;9.75;;;1.90;;
50781;SDS011;36749;37.428;-121.972;2023-03-01T01:36:18;9.07;;;1.70;;
50781;SDS011;36749;37.428;-121.972;2023-03-01T01:38:45;9.57;;;2.00;;
50781;SDS011;36749;37.428;-121.972;2023-03-01T01:41:12;6.60;;;1.90;;
50781;SDS011;36749;37.428;-121.972;2023-03-01T01:43:41;14.50;;;2.20;;
50781;SDS011;36749;37.428;-121.972;2023-03-01T01:48:45;4.30;;;2.22;;
50781;SDS011;36749;37.428;-121.972;2023-03-01T01:51:25;11.77;;;2.42;;
50781;SDS011;36749;37.428;-121.972;2023-03-01T01:53:55;6.18;;;1.90;;
50781;SDS011;36749;37.428;-121.972;2023-03-01T01:56:24;14.90;;;2.47;;
50781;SDS011;36749;37.428;-121.972;2023-03-01T01:58:52;9.00;;;1.55;;
50781;SDS011;36749;37.428;-121.972;2023-03-01T02:01:19;11.57;;;2.03;;
50781;SDS011;36749;37.428;-121.972;2023-03-01T02:03:45;5.75;;;1.77;;
50781;SDS011;36749;37.428;-121.972;2023-03-01T02:06:18;9.85;;;2.42;;
50781;SDS011;36749;37.428;-121.972;2023-03-01T02:08:48;7.32;;;1.98;;
50781;SDS011;36749;37.428;-121.972;2023-03-01T02:11:15;9.25;;;2.00;;
50781;SDS011;36749;37.428;-121.972;2023-03-01T02:13:42;9.80;;;2.00;;
50781;SDS011;36749;37.428;-121.972;2023-03-01T02:16:09;9.30;;;2.03;;
50781;SDS011;36749;37.428;-121.972;2023-03-01T02:18:37;9.02;;;2.05;;
50781;SDS011;36749;37.428;-121.972;2023-03-01T02:23:43;6.85;;;2.05;;
50781;SDS011;36749;37.428;-121.972;2023-03-01T02:26:27;7.68;;;2.45;;
50781;SDS011;36749;37.428;-121.972;2023-03-01T02:29:15;13.43;;;2.90;;
50781;SDS011;36749;37.428;-121.972;2023-03-01T02:31:42;13.32;;;2.70;;
50781;SDS011;36749;37.428;-121.972;2023-03-01T02:34:12;8.32;;;1.80;;
50781;SDS011;36749;37.428;-121.972;2023-03-01T02:36:42;3.53;;;1.17;;
50781;SDS011;36749;37.428;-121.972;2023-03-01T02:39:15;5.40;;;1.52;;
50781;SDS011;36749;37.428;-121.972;2023-03-01T02:41:48;5.97;;;1.45;;
50781;SDS011;36749;37.428;-121.972;2023-03-01T02:44:16;4.88;;;2.30;;
50781;SDS011;36749;37.428;-121.972;2023-03-01T02:46:46;5.53;;;1.30;;
50781;SDS011;36749;37.428;-121.972;2023-03-01T02:49:22;9.18;;;1.60;;
50781;SDS011;36749;37.428;-121.972;2023-03-01T02:55:08;9.40;;;2.08;;
50781;SDS011;36749;37.428;-121.972;2023-03-01T02:57:40;7.72;;;1.60;;
50781;SDS011;36749;37.428;-121.972;2023-03-01T03:00:08;9.02;;;2.63;;
50781;SDS011;36749;37.428;-121.972;2023-03-01T03:02:50;6.45;;;2.13;;
50781;SDS011;36749;37.428;-121.972;2023-03-01T03:05:19;11.85;;;2.65;;
50781;SDS011;36749;37.428;-121.972;2023-03-01T03:07:46;6.35;;;1.95;;
50781;SDS011;36749;37.428;-121.972;2023-03-01T03:10:15;8.95;;;2.33;;
50781;SDS011;36749;37.428;-121.972;2023-03-01T03:12:51;3.50;;;1.58;;
50781;SDS011;36749;37.428;-121.972;2023-03-01T03:15:18;6.05;;;1.73;;
50781;SDS011;36749;37.428;-121.972;2023-03-01T03:17:45;3.05;;;1.60;;
50781;SDS011;36749;37.428;-121.972;2023-03-01T03:20:12;6.53;;;1.80;;
50781;SDS011;36749;37.428;-121.972;2023-03-01T03:22:47;9.27;;;1.65;;
50781;SDS011;36749;37.428;-121.972;2023-03-01T03:25:15;5.25;;;1.58;;
50781;SDS011;36749;37.428;-121.972;2023-03-01T03:27:42;5.25;;;2.05;;
50781;SDS011;36749;37.428;-121.972;2023-03-01T03:30:10;3.80;;;1.65;;
50781;SDS011;36749;37.428;-121.972;2023-03-01T03:32:39;4.75;;;1.83;;
50781;SDS011;36749;37.428;-121.972;2023-03-01T03:35:06;6.78;;;1.77;;
50781;SDS011;36749;37.428;-121.972;2023-03-01T03:37:37;6.10;;;2.00;;
50781;SDS011;36749;37.428;-121.972;2023-03-01T03:40:23;4.00;;;1.63;;
50781;SDS011;36749;37.428;-121.972;2023-03-01T03:42:50;9.30;;;2.30;;
50781;SDS011;36749;37.428;-121.972;2023-03-01T03:45:17;4.18;;;1.60;;
50781;SDS011;36749;37.428;-121.972;2023-03-01T03:47:43;3.47;;;1.65;;
50781;SDS011;36749;37.428;-121.972;2023-03-01T03:50:11;3.35;;;1.65;;
50781;SDS011;36749;37.428;-121.972;2023-03-01T03:52:38;4.40;;;1.67;;
50781;SDS011;36749;37.428;-121.972;2023-03-01T03:55:05;4.63;;;1.67;;
50781;SDS011;36749;37.428;-121.972;2023-03-01T03:57:36;7.32;;;1.95;;
50781;SDS011;36749;37.428;-121.972;2023-03-01T04:00:03;8.73;;;2.10;;
50781;SDS011;36749;37.428;-121.972;2023-03-01T04:02:31;5.45;;;1.73;;
50781;SDS011;36749;37.428;-121.972;2023-03-01T04:04:57;5.43;;;1.92;;
50781;SDS011;36749;37.428;-121.972;2023-03-01T04:07:23;5.13;;;1.50;;
50781;SDS011;36749;37.428;-121.972;2023-03-01T04:09:49;6.30;;;1.50;;
50781;SDS011;36749;37.428;-121.972;2023-03-01T04:12:16;4.40;;;1.30;;
50781;SDS011;36749;37.428;-121.972;2023-03-01T04:14:48;5.93;;;1.33;;
50781;SDS011;36749;37.428;-121.972;2023-03-01T04:17:15;3.78;;;1.02;;
50781;SDS011;36749;37.428;-121.972;2023-03-01T04:19:41;3.45;;;1.17;;
50781;SDS011;36749;37.428;-121.972;2023-03-01T04:22:09;2.20;;;1.05;;
50781;SDS011;36749;37.428;-121.972;2023-03-01T04:24:36;3.55;;;1.20;;
50781;SDS011;36749;37.428;-121.972;2023-03-01T04:27:03;6.78;;;1.23;;
50781;SDS011;36749;37.428;-121.972;2023-03-01T04:29:29;5.10;;;1.38;;
50781;SDS011;36749;37.428;-121.972;2023-03-01T04:31:59;3.60;;;1.60;;
50781;SDS011;36749;37.428;-121.972;2023-03-01T04:34:25;5.72;;;1.48;;
50781;SDS011;36749;37.428;-121.972;2023-03-01T04:36:54;6.10;;;1.80;;
50781;SDS011;36749;37.428;-121.972;2023-03-01T04:39:20;4.90;;;1.45;;
50781;SDS011;36749;37.428;-121.972;2023-03-01T04:41:47;11.15;;;1.77;;
50781;SDS011;36749;37.428;-121.972;2023-03-01T04:44:13;7.53;;;1.77;;
50781;SDS011;36749;37.428;-121.972;2023-03-01T04:46:39;5.82;;;1.60;;
50781;SDS011;36749;37.428;-121.972;2023-03-01T04:49:06;8.43;;;1.90;;
50781;SDS011;36749;37.428;-121.972;2023-03-01T04:51:32;9.88;;;2.03;;
50781;SDS011;36749;37.428;-121.972;2023-03-01T04:53:59;15.10;;;2.42;;
50781;SDS011;36749;37.428;-121.972;2023-03-01T04:56:25;8.10;;;1.38;;
50781;SDS011;36749;37.428;-121.972;2023-03-01T04:58:54;8.02;;;1.88;;
50781;SDS011;36749;37.428;-121.972;2023-03-01T05:01:21;4.57;;;1.48;;
50781;SDS011;36749;37.428;-121.972;2023-03-01T05:03:48;6.47;;;1.20;;
50781;SDS011;36749;37.428;-121.972;2023-03-01T05:06:16;2.80;;;1.33;;
50781;SDS011;36749;37.428;-121.972;2023-03-01T05:08:43;7.47;;;1.17;;
50781;SDS011;36749;37.428;-121.972;2023-03-01T05:11:09;3.60;;;1.30;;
50781;SDS011;36749;37.428;-121.972;2023-03-01T05:13:56;5.68;;;1.30;;
50781;SDS011;36749;37.428;-121.972;2023-03-01T05:16:25;5.57;;;1.33;;
50781;SDS011;36749;37.428;-121.972;2023-03-01T05:18:51;5.03;;;1.63;;
50781;SDS011;36749;37.428;-121.972;2023-03-01T05:21:17;7.10;;;1.27;;
50781;SDS011;36749;37.428;-121.972;2023-03-01T05:23:44;7.57;;;1.67;;
50781;SDS011;36749;37.428;-121.972;2023-03-01T05:26:12;1.98;;;1.52;;
50781;SDS011;36749;37.428;-121.972;2023-03-01T05:28:39;4.85;;;1.38;;
50781;SDS011;36749;37.428;-121.972;2023-03-01T05:31:05;8.40;;;1.70;;
50781;SDS011;36749;37.428;-121.972;2023-03-01T05:33:41;1.50;;;1.00;;
50781;SDS011;36749;37.428;-121.972;2023-03-01T05:36:08;6.40;;;1.27;;
50781;SDS011;36749;37.428;-121.972;2023-03-01T05:38:35;5.47;;;1.90;;
50781;SDS011;36749;37.428;-121.972;2023-03-01T05:41:01;4.53;;;1.98;;
50781;SDS011;36749;37.428;-121.972;2023-03-01T05:43:30;1.77;;;0.80;;
50781;SDS011;36749;37.428;-121.972;2023-03-01T05:45:59;2.88;;;1.00;;
50781;SDS011;36749;37.428;-121.972;2023-03-01T05:48:25;1.67;;;0.90;;
50781;SDS011;36749;37.428;-121.972;2023-03-01T05:50:51;3.10;;;1.00;;
50781;SDS011;36749;37.428;-121.972;2023-03-01T05:53:18;3.45;;;1.00;;
50781;SDS011;36749;37.428;-121.972;2023-03-01T05:55:48;7.95;;;1.25;;
50781;SDS011;36749;37.428;-121.972;2023-03-01T05:58:16;1.33;;;0.90;;
50781;SDS011;36749;37.428;-121.972;2023-03-01T06:00:44;0.98;;;0.98;;
50781;SDS011;36749;37.428;-121.972;2023-03-01T06:03:13;3.47;;;1.05;;
50781;SDS011;36749;37.428;-121.972;2023-03-01T06:05:41;5.70;;;1.35;;
50781;SDS011;36749;37.428;-121.972;2023-03-01T06:08:09;2.30;;;1.20;;
50781;SDS011;36749;37.428;-121.972;2023-03-01T06:10:39;1.75;;;0.90;;
50781;SDS011;36749;37.428;-121.972;2023-03-01T06:13:05;2.70;;;1.00;;
50781;SDS011;36749;37.428;-121.972;2023-03-01T06:15:32;3.28;;;1.25;;
50781;SDS011;36749;37.428;-121.972;2023-03-01T06:17:58;4.03;;;0.93;;
50781;SDS011;36749;37.428;-121.972;2023-03-01T06:20:25;3.67;;;1.35;;
50781;SDS011;36749;37.428;-121.972;2023-03-01T06:22:53;1.95;;;0.80;;
50781;SDS011;36749;37.428;-121.972;2023-03-01T06:25:20;2.70;;;1.23;;
50781;SDS011;36749;37.428;-121.972;2023-03-01T06:27:49;3.90;;;1.30;;
50781;SDS011;36749;37.428;-121.972;2023-03-01T06:30:16;3.10;;;1.13;;
50781;SDS011;36749;37.428;-121.972;2023-03-01T06:32:43;2.53;;;1.70;;
50781;SDS011;36749;37.428;-121.972;2023-03-01T06:35:10;2.15;;;1.52;;
50781;SDS011;36749;37.428;-121.972;2023-03-01T06:37:38;4.40;;;1.25;;
50781;SDS011;36749;37.428;-121.972;2023-03-01T06:40:05;4.32;;;1.73;;
50781;SDS011;36749;37.428;-121.972;2023-03-01T06:42:37;3.42;;;1.50;;
50781;SDS011;36749;37.428;-121.972;2023-03-01T06:45:04;3.65;;;1.30;;
50781;SDS011;36749;37.428;-121.972;2023-03-01T06:47:32;3.47;;;1.55;;
50781;SDS011;36749;37.428;-121.972;2023-03-01T06:50:02;1.65;;;1.17;;
50781;SDS011;36749;37.428;-121.972;2023-03-01T06:52:28;2.47;;;1.20;;
50781;SDS011;36749;37.428;-121.972;2023-03-01T06:54:55;3.05;;;1.73;;
50781;SDS011;36749;37.428;-121.972;2023-03-01T06:57:21;3.40;;;1.33;;
50781;SDS011;36749;37.428;-121.972;2023-03-01T06:59:47;4.80;;;1.55;;
50781;SDS011;36749;37.428;-121.972;2023-03-01T07:02:13;4.80;;;1.35;;
50781;SDS011;36749;37.428;-121.972;2023-03-01T07:04:40;2.05;;;1.60;;
50781;SDS011;36749;37.428;-121.972;2023-03-01T07:07:07;3.90;;;1.33;;
50781;SDS011;36749;37.428;-121.972;2023-03-01T07:09:33;5.00;;;1.52;;
50781;SDS011;36749;37.428;-121.972;2023-03-01T07:11:59;4.32;;;1.58;;
50781;SDS011;36749;37.428;-121.972;2023-03-01T07:14:26;6.05;;;2.10;;
50781;SDS011;36749;37.428;-121.972;2023-03-01T07:16:52;2.83;;;2.03;;
50781;SDS011;36749;37.428;-121.972;2023-03-01T07:19:19;3.22;;;1.50;;
50781;SDS011;36749;37.428;-121.972;2023-03-01T07:21:46;5.72;;;1.55;;
50781;SDS011;36749;37.428;-121.972;2023-03-01T07:24:12;3.05;;;1.30;;
50781;SDS011;36749;37.428;-121.972;2023-03-01T07:26:38;6.25;;;1.80;;
50781;SDS011;36749;37.428;-121.972;2023-03-01T07:29:05;6.82;;;1.50;;
50781;SDS011;36749;37.428;-121.972;2023-03-01T07:31:33;7.50;;;2.33;;
50781;SDS011;36749;37.428;-121.972;2023-03-01T07:34:02;9.82;;;1.70;;
50781;SDS011;36749;37.428;-121.972;2023-03-01T07:36:29;4.95;;;1.75;;
50781;SDS011;36749;37.428;-121.972;2023-03-01T07:38:56;7.97;;;1.88;;
50781;SDS011;36749;37.428;-121.972;2023-03-01T07:41:23;4.40;;;1.55;;
50781;SDS011;36749;37.428;-121.972;2023-03-01T07:43:49;8.95;;;2.03;;
50781;SDS011;36749;37.428;-121.972;2023-03-01T07:46:15;5.28;;;1.33;;
50781;SDS011;36749;37.428;-121.972;2023-03-01T07:48:43;7.32;;;1.90;;
50781;SDS011;36749;37.428;-121.972;2023-03-01T07:51:09;7.90;;;1.60;;
50781;SDS011;36749;37.428;-121.972;2023-03-01T07:53:35;3.72;;;1.80;;
50781;SDS011;36749;37.428;-121.972;2023-03-01T07:56:11;8.82;;;2.88;;
50781;SDS011;36749;37.428;-121.972;2023-03-01T07:58:40;9.57;;;1.85;;
50781;SDS011;36749;37.428;-121.972;2023-03-01T08:01:08;8.77;;;2.00;;
50781;SDS011;36749;37.428;-121.972;2023-03-01T08:03:36;7.57;;;2.45;;
50781;SDS011;36749;37.428;-121.972;2023-03-01T08:06:04;14.40;;;2.40;;
50781;SDS011;36749;37.428;-121.972;2023-03-01T08:08:32;6.18;;;1.70;;
50781;SDS011;36749;37.428;-121.972;2023-03-01T08:10:58;8.98;;;1.90;;
50781;SDS011;36749;37.428;-121.972;2023-03-01T08:13:26;7.63;;;1.50;;
50781;SDS011;36749;37.428;-121.972;2023-03-01T08:15:53;10.30;;;2.03;;
50781;SDS011;36749;37.428;-121.972;2023-03-01T08:18:20;10.02;;;1.77;;
50781;SDS011;36749;37.428;-121.972;2023-03-01T08:20:46;5.43;;;1.42;;
50781;SDS011;36749;37.428;-121.972;2023-03-01T08:23:13;9.05;;;1.90;;
50781;SDS011;36749;37.428;-121.972;2023-03-01T08:25:39;8.30;;;1.92;;
50781;SDS011;36749;37.428;-121.972;2023-03-01T08:28:06;5.07;;;1.70;;
50781;SDS011;36749;37.428;-121.972;2023-03-01T08:30:32;6.97;;;2.03;;
50781;SDS011;36749;37.428;-121.972;2023-03-01T08:32:58;8.02;;;1.83;;
50781;SDS011;36749;37.428;-121.972;2023-03-01T08:35:24;8.95;;;1.92;;
50781;SDS011;36749;37.428;-121.972;2023-03-01T08:37:51;13.68;;;2.63;;
50781;SDS011;36749;37.428;-121.972;2023-03-01T08:40:17;15.85;;;3.22;;
50781;SDS011;36749;37.428;-121.972;2023-03-01T08:42:43;9.00;;;2.00;;
50781;SDS011;36749;37.428;-121.972;2023-03-01T08:45:09;8.68;;;2.25;;
50781;SDS011;36749;37.428;-121.972;2023-03-01T08:47:36;10.88;;;2.00;;
50781;SDS011;36749;37.428;-121.972;2023-03-01T08:50:03;8.00;;;1.90;;
50781;SDS011;36749;37.428;-121.972;2023-03-01T08:52:30;8.75;;;2.08;;
50781;SDS011;36749;37.428;-121.972;2023-03-01T08:54:58;8.43;;;1.70;;
50781;SDS011;36749;37.428;-121.972;2023-03-01T08:57:26;8.75;;;2.42;;
50781;SDS011;36749;37.428;-121.972;2023-03-01T08:59:52;6.88;;;1.63;;
50781;SDS011;36749;37.428;-121.972;2023-03-01T09:02:21;6.75;;;1.90;;
50781;SDS011;36749;37.428;-121.972;2023-03-01T09:04:47;7.10;;;2.28;;
50781;SDS011;36749;37.428;-121.972;2023-03-01T09:07:13;11.35;;;2.13;;
50781;SDS011;36749;37.428;-121.972;2023-03-01T09:09:40;8.30;;;1.85;;
50781;SDS011;36749;37.428;-121.972;2023-03-01T09:12:06;5.28;;;2.03;;
50781;SDS011;36749;37.428;-121.972;2023-03-01T09:14:32;9.00;;;2.70;;
50781;SDS011;36749;37.428;-121.972;2023-03-01T09:16:58;7.78;;;2.15;;
50781;SDS011;36749;37.428;-121.972;2023-03-01T09:19:28;5.68;;;1.73;;
50781;SDS011;36749;37.428;-121.972;2023-03-01T09:21:54;3.58;;;1.50;;
50781;SDS011;36749;37.428;-121.972;2023-03-01T09:24:41;6.63;;;2.97;;
50781;SDS011;36749;37.428;-121.972;2023-03-01T09:27:27;6.10;;;1.58;;
50781;SDS011;36749;37.428;-121.972;2023-03-01T09:29:53;7.57;;;1.98;;
50781;SDS011;36749;37.428;-121.972;2023-03-01T09:32:21;6.70;;;2.60;;
50781;SDS011;36749;37.428;-121.972;2023-03-01T09:34:47;7.18;;;1.90;;
50781;SDS011;36749;37.428;-121.972;2023-03-01T09:37:26;5.15;;;1.80;;
50781;SDS011;36749;37.428;-121.972;2023-03-01T09:39:52;6.10;;;1.80;;
50781;SDS011;36749;37.428;-121.972;2023-03-01T09:42:19;6.82;;;1.90;;
50781;SDS011;36749;37.428;-121.972;2023-03-01T09:44:47;10.35;;;2.15;;
50781;SDS011;36749;37.428;-121.972;2023-03-01T09:47:17;10.02;;;2.28;;
50781;SDS011;36749;37.428;-121.972;2023-03-01T09:49:53;7.55;;;1.77;;
50781;SDS011;36749;37.428;-121.972;2023-03-01T09:52:42;7.82;;;1.83;;
50781;SDS011;36749;37.428;-121.972;2023-03-01T09:55:13;3.75;;;1.58;;
50781;SDS011;36749;37.428;-121.972;2023-03-01T09:57:53;9.00;;;1.90;;
50781;SDS011;36749;37.428;-121.972;2023-03-01T10:00:39;8.68;;;1.83;;
50781;SDS011;36749;37.428;-121.972;2023-03-01T10:08:50;12.05;;;2.47;;
50781;SDS011;36749;37.428;-121.972;2023-03-01T10:11:21;9.82;;;1.90;;
50781;SDS011;36749;37.428;-121.972;2023-03-01T10:14:39;8.27;;;2.40;;
50781;SDS011;36749;37.428;-121.972;2023-03-01T10:17:47;10.60;;;2.05;;
50781;SDS011;36749;37.428;-121.972;2023-03-01T10:20:10;7.72;;;2.13;;
50781;SDS011;36749;37.428;-121.972;2023-03-01T10:22:41;7.47;;;2.00;;
50781;SDS011;36749;37.428;-121.972;2023-03-01T10:25:13;5.95;;;1.65;;
50781;SDS011;36749;37.428;-121.972;2023-03-01T10:27:53;9.65;;;3.10;;
50781;SDS011;36749;37.428;-121.972;2023-03-01T10:30:32;9.80;;;1.98;;
50781;SDS011;36749;37.428;-121.972;2023-03-01T10:33:03;7.00;;;2.25;;
50781;SDS011;36749;37.428;-121.972;2023-03-01T10:35:55;9.48;;;1.73;;
50781;SDS011;36749;37.428;-121.972;2023-03-01T10:38:21;12.70;;;2.20;;
50781;SDS011;36749;37.428;-121.972;2023-03-01T10:40:55;6.75;;;1.98;;
50781;SDS011;36749;37.428;-121.972;2023-03-01T10:43:32;8.43;;;2.03;;
50781;SDS011;36749;37.428;-121.972;2023-03-01T10:46:44;11.27;;;2.70;;
50781;SDS011;36749;37.428;-121.972;2023-03-01T10:49:22;9.93;;;2.00;;
50781;SDS011;36749;37.428;-121.972;2023-03-01T10:51:51;9.30;;;3.15;;
50781;SDS011;36749;37.428;-121.972;2023-03-01T10:54:22;8.48;;;2.30;;
50781;SDS011;36749;37.428;-121.972;2023-03-01T10:56:54;11.93;;;2.38;;
50781;SDS011;36749;37.428;-121.972;2023-03-01T11:02:03;14.93;;;3.00;;
50781;SDS011;36749;37.428;-121.972;2023-03-01T11:04:35;7.35;;;1.75;;
50781;SDS011;36749;37.428;-121.972;2023-03-01T11:07:02;11.88;;;2.65;;
50781;SDS011;36749;37.428;-121.972;2023-03-01T11:09:32;9.80;;;1.83;;
50781;SDS011;36749;37.428;-121.972;2023-03-01T11:12:08;10.32;;;2.45;;
50781;SDS011;36749;37.428;-121.972;2023-03-01T11:14:45;11.13;;;2.95;;
50781;SDS011;36749;37.428;-121.972;2023-03-01T11:17:20;13.40;;;2.33;;
50781;SDS011;36749;37.428;-121.972;2023-03-01T11:22:58;9.30;;;2.85;;
50781;SDS011;36749;37.428;-121.972;2023-03-01T11:25:31;9.18;;;2.13;;
50781;SDS011;36749;37.428;-121.972;2023-03-01T11:28:02;8.88;;;2.00;;
50781;SDS011;36749;37.428;-121.972;2023-03-01T11:30:38;5.57;;;2.45;;
50781;SDS011;36749;37.428;-121.972;2023-03-01T11:36:56;12.77;;;2.67;;
50781;SDS011;36749;37.428;-121.972;2023-03-01T11:39:38;9.35;;;1.92;;
50781;SDS011;36749;37.428;-121.972;2023-03-01T11:42:12;10.70;;;2.20;;
50781;SDS011;36749;37.428;-121.972;2023-03-01T11:44:44;9.43;;;2.03;;
50781;SDS011;36749;37.428;-121.972;2023-03-01T11:47:21;8.05;;;2.03;;
50781;SDS011;36749;37.428;-121.972;2023-03-01T12:00:25;9.23;;;2.88;;
50781;SDS011;36749;37.428;-121.972;2023-03-01T12:05:50;12.00;;;2.30;;
50781;SDS011;36749;37.428;-121.972;2023-03-01T12:08:40;11.73;;;3.13;;
50781;SDS011;36749;37.428;-121.972;2023-03-01T12:14:00;9.00;;;2.10;;
50781;SDS011;36749;37.428;-121.972;2023-03-01T12:16:55;5.55;;;1.70;;
50781;SDS011;36749;37.428;-121.972;2023-03-01T12:19:31;11.73;;;2.35;;
50781;SDS011;36749;37.428;-121.972;2023-03-01T12:22:21;11.25;;;2.42;;
50781;SDS011;36749;37.428;-121.972;2023-03-01T12:27:46;6.90;;;1.90;;
50781;SDS011;36749;37.428;-121.972;2023-03-01T12:36:31;8.23;;;1.77;;
50781;SDS011;36749;37.428;-121.972;2023-03-01T12:50:23;5.57;;;1.73;;
50781;SDS011;36749;37.428;-121.972;2023-03-01T12:52:55;4.10;;;1.83;;
50781;SDS011;36749;37.428;-121.972;2023-03-01T13:00:45;10.32;;;2.35;;
50781;SDS011;36749;37.428;-121.972;2023-03-01T13:06:25;8.80;;;2.60;;
50781;SDS011;36749;37.428;-121.972;2023-03-01T13:09:11;3.60;;;1.75;;
50781;SDS011;36749;37.428;-121.972;2023-03-01T13:12:03;4.93;;;1.80;;
50781;SDS011;36749;37.428;-121.972;2023-03-01T13:16:59;7.38;;;2.13;;
50781;SDS011;36749;37.428;-121.972;2023-03-01T13:19:26;9.88;;;2.60;;
50781;SDS011;36749;37.428;-121.972;2023-03-01T13:21:57;13.43;;;2.53;;
50781;SDS011;36749;37.428;-121.972;2023-03-01T13:32:22;6.95;;;2.30;;
50781;SDS011;36749;37.428;-121.972;2023-03-01T13:34:50;5.82;;;1.88;;
50781;SDS011;36749;37.428;-121.972;2023-03-01T13:37:21;3.20;;;1.58;;
50781;SDS011;36749;37.428;-121.972;2023-03-01T13:39:52;8.48;;;1.88;;
50781;SDS011;36749;37.428;-121.972;2023-03-01T13:42:32;7.00;;;2.20;;
50781;SDS011;36749;37.428;-121.972;2023-03-01T13:45:24;7.55;;;1.70;;
50781;SDS011;36749;37.428;-121.972;2023-03-01T13:48:00;4.75;;;1.65;;
50781;SDS011;36749;37.428;-121.972;2023-03-01T13:50:33;2.83;;;1.55;;
50781;SDS011;36749;37.428;-121.972;2023-03-01T13:53:04;5.32;;;1.63;;
50781;SDS011;36749;37.428;-121.972;2023-03-01T13:55:41;7.70;;;2.90;;
50781;SDS011;36749;37.428;-121.972;2023-03-01T14:00:55;10.05;;;1.98;;
50781;SDS011;36749;37.428;-121.972;2023-03-01T14:03:23;8.93;;;2.90;;
50781;SDS011;36749;37.428;-121.972;2023-03-01T14:08:37;14.50;;;3.35;;
50781;SDS011;36749;37.428;-121.972;2023-03-01T14:16:17;4.30;;;1.80;;
50781;SDS011;36749;37.428;-121.972;2023-03-01T14:21:24;10.32;;;2.13;;
50781;SDS011;36749;37.428;-121.972;2023-03-01T14:23:51;8.32;;;1.90;;
50781;SDS011;36749;37.428;-121.972;2023-03-01T14:26:21;5.95;;;1.77;;
50781;SDS011;36749;37.428;-121.972;2023-03-01T14:28:48;9.07;;;1.60;;
50781;SDS011;36749;37.428;-121.972;2023-03-01T14:34:04;24.70;;;3.95;;
50781;SDS011;36749;37.428;-121.972;2023-03-01T14:36:32;13.52;;;2.60;;
50781;SDS011;36749;37.428;-121.972;2023-03-01T14:39:15;6.60;;;2.30;;
50781;SDS011;36749;37.428;-121.972;2023-03-01T14:41:42;19.90;;;4.88;;
50781;SDS011;36749;37.428;-121.972;2023-03-01T14:44:12;13.48;;;2.60;;
50781;SDS011;36749;37.428;-121.972;2023-03-01T14:49:10;4.72;;;2.03;;
50781;SDS011;36749;37.428;-121.972;2023-03-01T14:51:38;10.15;;;2.30;;
50781;SDS011;36749;37.428;-121.972;2023-03-01T14:54:23;8.85;;;2.63;;
50781;SDS011;36749;37.428;-121.972;2023-03-01T14:56:50;14.80;;;3.38;;
50781;SDS011;36749;37.428;-121.972;2023-03-01T14:59:21;14.48;;;3.33;;
50781;SDS011;36749;37.428;-121.972;2023-03-01T15:01:48;22.38;;;4.78;;
50781;SDS011;36749;37.428;-121.972;2023-03-01T15:04:22;5.03;;;1.90;;
50781;SDS011;36749;37.428;-121.972;2023-03-01T15:06:53;11.40;;;3.58;;
50781;SDS011;36749;37.428;-121.972;2023-03-01T15:09:20;7.88;;;2.40;;
50781;SDS011;36749;37.428;-121.972;2023-03-01T15:11:47;10.10;;;2.80;;
50781;SDS011;36749;37.428;-121.972;2023-03-01T15:16:53;60.45;;;12.68;;
50781;SDS011;36749;37.428;-121.972;2023-03-01T15:19:19;37.63;;;7.38;;
50781;SDS011;36749;37.428;-121.972;2023-03-01T15:21:53;35.17;;;7.05;;
50781;SDS011;36749;37.428;-121.972;2023-03-01T15:24:22;15.45;;;3.00;;
50781;SDS011;36749;37.428;-121.972;2023-03-01T15:26:51;25.65;;;5.13;;
50781;SDS011;36749;37.428;-121.972;2023-03-01T15:29:23;16.98;;;4.32;;
50781;SDS011;36749;37.428;-121.972;2023-03-01T15:32:03;37.50;;;7.38;;
50781;SDS011;36749;37.428;-121.972;2023-03-01T15:34:35;24.17;;;4.50;;
50781;SDS011;36749;37.428;-121.972;2023-03-01T15:37:03;30.25;;;5.97;;
50781;SDS011;36749;37.428;-121.972;2023-03-01T15:42:46;20.15;;;3.97;;
50781;SDS011;36749;37.428;-121.972;2023-03-01T15:45:10;34.25;;;5.25;;
50781;SDS011;36749;37.428;-121.972;2023-03-01T15:47:46;28.15;;;4.15;;
50781;SDS011;36749;37.428;-121.972;2023-03-01T15:50:22;23.13;;;5.25;;
50781;SDS011;36749;37.428;-121.972;2023-03-01T15:52:50;20.27;;;4.10;;
50781;SDS011;36749;37.428;-121.972;2023-03-01T15:55:30;34.30;;;5.47;;
50781;SDS011;36749;37.428;-121.972;2023-03-01T15:58:15;29.33;;;5.65;;
50781;SDS011;36749;37.428;-121.972;2023-03-01T16:00:44;22.67;;;3.85;;
50781;SDS011;36749;37.428;-121.972;2023-03-01T16:03:11;24.95;;;3.15;;
50781;SDS011;36749;37.428;-121.972;2023-03-01T16:05:37;13.70;;;3.08;;
50781;SDS011;36749;37.428;-121.972;2023-03-01T16:08:04;7.30;;;2.28;;